Time;durP1;ratioP1;P1;durP2;ratioP2;P2;SDS_P1;SDS_P2;PMS_P1;PMS_P2;Temp;Humidity;BMP_temperature;BMP_pressure;BME280_temperature;BME280_humidity;BME280_pressure;Samples;Min_cycle;Max_cycle;Signal;HPM_P1;HPM_P2
2024/04/13 00:00:36;;;;;;;3.17;2.58;;;;;;;;;;5441425;26;20282;-41
2024/04/13 00:03:02;;;;;;;2.10;1.90;;;;;;;;;;5450050;26;20479;-41
2024/04/13 00:05:28;;;;;;;2.28;2.00;;;;;;;;;;5439657;26;20231;-41
2024/04/13 00:07:55;;;;;;;4.05;1.98;;;;;;;;;;5436906;26;20316;-41
2024/04/13 00:10:22;;;;;;;4.88;2.20;;;;;;;;;;5438938;26;20606;-41
2024/04/13 00:12:51;;;;;;;3.63;2.05;;;;;;;;;;5447438;26;20461;-41
2024/04/13 00:15:16;;;;;;;2.63;2.20;;;;;;;;;;5439232;26;20233;-40
2024/04/13 00:17:43;;;;;;;5.30;2.08;;;;;;;;;;5454320;26;20300;-41
2024/04/13 00:20:09;;;;;;;4.05;2.40;;;;;;;;;;5438810;26;20641;-41
2024/04/13 00:22:35;;;;;;;4.43;1.90;;;;;;;;;;5440413;26;20275;-41
2024/04/13 00:25:04;;;;;;;4.75;2.17;;;;;;;;;;5442417;26;20244;-40
2024/04/13 00:27:30;;;;;;;3.15;2.08;;;;;;;;;;5455884;26;20333;-41
2024/04/13 00:29:58;;;;;;;3.28;1.98;;;;;;;;;;5451477;26;20235;-41
2024/04/13 00:32:25;;;;;;;2.78;2.05;;;;;;;;;;5456935;26;20274;-40
2024/04/13 00:34:51;;;;;;;2.95;1.95;;;;;;;;;;5442530;26;20262;-41
2024/04/13 00:37:18;;;;;;;2.10;1.95;;;;;;;;;;5431397;26;20373;-41
2024/04/13 00:39:44;;;;;;;3.03;2.10;;;;;;;;;;5446439;26;20279;-41
2024/04/13 00:42:10;;;;;;;3.78;1.95;;;;;;;;;;5433199;26;20263;-41
2024/04/13 00:44:36;;;;;;;3.10;2.20;;;;;;;;;;5448603;26;20227;-40
2024/04/13 00:47:05;;;;;;;2.38;1.98;;;;;;;;;;5445145;26;20267;-41
2024/04/13 00:49:36;;;;;;;2.83;1.90;;;;;;;;;;5432891;26;20228;-41
2024/04/13 00:52:03;;;;;;;4.35;1.88;;;;;;;;;;5450029;26;20231;-40
2024/04/13 00:54:31;;;;;;;3.13;1.90;;;;;;;;;;5437277;26;20221;-40
2024/04/13 00:56:58;;;;;;;3.00;2.25;;;;;;;;;;5451134;26;20308;-40
2024/04/13 00:59:25;;;;;;;3.10;2.10;;;;;;;;;;5432222;26;20270;-41
2024/04/13 01:01:52;;;;;;;3.03;2.03;;;;;;;;;;5452329;26;20278;-41
2024/04/13 01:04:18;;;;;;;3.70;2.08;;;;;;;;;;5433632;26;20227;-41
2024/04/13 01:06:45;;;;;;;3.50;2.15;;;;;;;;;;5450774;26;20637;-41
2024/04/13 01:09:14;;;;;;;5.10;2.35;;;;;;;;;;5452670;26;20797;-41
2024/04/13 01:11:41;;;;;;;2.50;2.10;;;;;;;;;;5426174;26;20240;-41
2024/04/13 01:14:07;;;;;;;3.90;1.88;;;;;;;;;;5435340;26;20258;-41
2024/04/13 01:16:35;;;;;;;8.13;2.38;;;;;;;;;;5434562;26;20239;-41
2024/04/13 01:19:01;;;;;;;2.30;1.50;;;;;;;;;;5441501;26;20760;-41
2024/04/13 01:21:27;;;;;;;3.90;2.08;;;;;;;;;;5447099;26;20284;-40
2024/04/13 01:23:55;;;;;;;3.05;2.22;;;;;;;;;;5433665;26;20275;-41
2024/04/13 01:26:21;;;;;;;3.20;1.88;;;;;;;;;;5442742;26;20247;-41
2024/04/13 01:28:47;;;;;;;5.25;2.15;;;;;;;;;;5441469;26;20298;-41
2024/04/13 01:31:13;;;;;;;3.60;1.90;;;;;;;;;;5453308;26;20645;-41
2024/04/13 01:33:39;;;;;;;4.03;2.30;;;;;;;;;;5444543;26;20228;-41
2024/04/13 01:36:06;;;;;;;4.28;2.35;;;;;;;;;;5447443;26;20232;-41
2024/04/13 01:38:32;;;;;;;4.53;2.00;;;;;;;;;;5433769;26;20232;-41
2024/04/13 01:40:58;;;;;;;5.40;1.80;;;;;;;;;;5430150;26;20341;-41
2024/04/13 01:43:24;;;;;;;2.85;2.08;;;;;;;;;;5443044;26;20239;-42
2024/04/13 01:45:50;;;;;;;2.70;1.83;;;;;;;;;;5449278;26;20316;-41
2024/04/13 01:48:17;;;;;;;2.30;1.70;;;;;;;;;;5429484;26;20316;-41
2024/04/13 01:50:43;;;;;;;2.15;1.70;;;;;;;;;;5434005;26;20224;-41
2024/04/13 01:53:09;;;;;;;2.20;1.80;;;;;;;;;;5452379;26;20277;-41
2024/04/13 01:55:36;;;;;;;4.47;2.20;;;;;;;;;;5452370;26;20282;-42
2024/04/13 01:58:03;;;;;;;3.17;1.98;;;;;;;;;;5427468;26;20278;-41
2024/04/13 02:00:29;;;;;;;2.25;1.70;;;;;;;;;;5444468;26;20565;-41
2024/04/13 02:02:55;;;;;;;2.83;2.03;;;;;;;;;;5449699;26;20247;-41
2024/04/13 02:05:21;;;;;;;3.17;2.00;;;;;;;;;;5450866;26;20231;-41
2024/04/13 02:07:47;;;;;;;2.50;1.80;;;;;;;;;;5443386;26;20261;-41
2024/04/13 02:10:14;;;;;;;2.30;1.83;;;;;;;;;;5452689;26;20239;-41
2024/04/13 02:12:40;;;;;;;3.83;2.25;;;;;;;;;;5438670;26;20488;-41
2024/04/13 02:15:06;;;;;;;2.75;1.80;;;;;;;;;;5437535;26;20248;-41
2024/04/13 02:17:32;;;;;;;3.42;2.10;;;;;;;;;;5454560;26;20338;-41
2024/04/13 02:19:59;;;;;;;3.20;1.90;;;;;;;;;;5454122;26;20606;-41
2024/04/13 02:22:27;;;;;;;3.42;1.50;;;;;;;;;;5440433;26;20282;-41
2024/04/13 02:24:53;;;;;;;2.65;1.63;;;;;;;;;;5444526;26;20223;-41
2024/04/13 02:27:19;;;;;;;3.80;2.00;;;;;;;;;;5435852;26;20244;-41
2024/04/13 02:29:45;;;;;;;2.17;1.80;;;;;;;;;;5428966;26;20232;-41
2024/04/13 02:32:11;;;;;;;2.47;1.55;;;;;;;;;;5452634;26;20239;-40
2024/04/13 02:34:37;;;;;;;2.55;1.50;;;;;;;;;;5441375;26;20312;-41
2024/04/13 02:37:03;;;;;;;2.90;1.90;;;;;;;;;;5434626;26;20708;-41
2024/04/13 02:39:29;;;;;;;3.13;2.10;;;;;;;;;;5435780;26;20231;-41
2024/04/13 02:41:54;;;;;;;2.88;2.08;;;;;;;;;;5427241;26;20276;-41
2024/04/13 02:44:20;;;;;;;2.30;1.90;;;;;;;;;;5440229;26;20227;-40
2024/04/13 02:46:47;;;;;;;2.85;1.85;;;;;;;;;;5428995;26;20237;-40
2024/04/13 02:49:12;;;;;;;4.07;1.67;;;;;;;;;;5436888;26;20497;-41
2024/04/13 02:51:38;;;;;;;3.25;1.90;;;;;;;;;;5430784;26;20266;-40
2024/04/13 02:54:04;;;;;;;3.20;1.95;;;;;;;;;;5437578;26;20329;-40
2024/04/13 02:56:33;;;;;;;4.70;1.77;;;;;;;;;;5433859;26;20233;-41
2024/04/13 02:58:59;;;;;;;2.42;1.52;;;;;;;;;;5442843;26;20239;-40
2024/04/13 03:01:26;;;;;;;2.03;1.80;;;;;;;;;;5424353;26;20228;-40
2024/04/13 03:03:52;;;;;;;3.60;1.73;;;;;;;;;;5427822;26;20283;-40
2024/04/13 03:06:18;;;;;;;3.92;1.60;;;;;;;;;;5446242;26;20300;-40
2024/04/13 03:08:44;;;;;;;3.00;1.85;;;;;;;;;;5451020;26;20595;-40
2024/04/13 03:11:11;;;;;;;3.05;1.70;;;;;;;;;;5446907;26;20288;-40
2024/04/13 03:13:37;;;;;;;2.55;1.70;;;;;;;;;;5424609;26;20279;-40
2024/04/13 03:16:05;;;;;;;2.53;1.52;;;;;;;;;;5443423;26;20224;-41
2024/04/13 03:18:34;;;;;;;2.33;1.83;;;;;;;;;;5447634;26;20231;-41
2024/04/13 03:21:00;;;;;;;2.50;1.50;;;;;;;;;;5435771;26;20240;-41
2024/04/13 03:23:29;;;;;;;2.17;1.73;;;;;;;;;;5448646;26;20458;-40
2024/04/13 03:25:55;;;;;;;3.45;1.80;;;;;;;;;;5457963;26;20672;-40
2024/04/13 03:28:25;;;;;;;3.47;1.75;;;;;;;;;;5438367;26;20493;-41
2024/04/13 03:30:51;;;;;;;1.60;1.40;;;;;;;;;;5434057;26;20316;-40
2024/04/13 03:33:17;;;;;;;4.00;1.60;;;;;;;;;;5444679;26;20232;-41
2024/04/13 03:35:44;;;;;;;2.65;1.60;;;;;;;;;;5439435;26;20647;-41
2024/04/13 03:38:10;;;;;;;1.55;1.30;;;;;;;;;;5435582;26;20624;-40
2024/04/13 03:40:36;;;;;;;1.90;1.65;;;;;;;;;;5445155;26;20274;-40
2024/04/13 03:43:02;;;;;;;2.10;1.65;;;;;;;;;;5445040;26;20237;-41
2024/04/13 03:45:28;;;;;;;1.92;1.40;;;;;;;;;;5436610;26;20557;-41
2024/04/13 03:47:54;;;;;;;1.75;1.55;;;;;;;;;;5450144;26;20239;-40
2024/04/13 03:50:20;;;;;;;2.42;1.50;;;;;;;;;;5430969;26;20220;-40
2024/04/13 03:52:46;;;;;;;2.17;1.70;;;;;;;;;;5436543;26;20328;-40
2024/04/13 03:55:12;;;;;;;1.40;1.30;;;;;;;;;;5437305;26;20233;-40
2024/04/13 03:57:38;;;;;;;1.38;1.20;;;;;;;;;;5455313;26;20235;-40
2024/04/13 04:00:08;;;;;;;1.95;1.58;;;;;;;;;;5444698;26;20231;-40
2024/04/13 04:02:37;;;;;;;1.95;1.48;;;;;;;;;;5435055;26;20248;-40
2024/04/13 04:05:03;;;;;;;2.83;1.80;;;;;;;;;;5434810;26;20328;-40
2024/04/13 04:07:29;;;;;;;2.10;1.50;;;;;;;;;;5450485;26;20505;-40
2024/04/13 04:09:55;;;;;;;3.13;1.17;;;;;;;;;;5441517;26;20283;-41
2024/04/13 04:12:21;;;;;;;1.77;1.25;;;;;;;;;;5438451;26;20235;-40
2024/04/13 04:14:47;;;;;;;7.63;1.77;;;;;;;;;;5448814;26;20286;-41
2024/04/13 04:17:13;;;;;;;9.63;1.92;;;;;;;;;;5452075;26;20499;-41
2024/04/13 04:19:39;;;;;;;4.38;2.30;;;;;;;;;;5429710;26;20317;-42
2024/04/13 04:22:05;;;;;;;6.68;1.75;;;;;;;;;;5429742;26;20286;-47
2024/04/13 04:24:31;;;;;;;8.15;2.13;;;;;;;;;;5445758;26;20317;-42
2024/04/13 04:26:57;;;;;;;4.45;1.90;;;;;;;;;;5447863;26;20500;-41
2024/04/13 04:29:23;;;;;;;7.20;2.35;;;;;;;;;;5442811;26;20224;-41
2024/04/13 04:31:49;;;;;;;5.20;1.90;;;;;;;;;;5443696;26;20306;-50
2024/04/13 04:34:15;;;;;;;3.80;1.75;;;;;;;;;;5430777;26;20244;-47
2024/04/13 04:36:41;;;;;;;6.20;2.20;;;;;;;;;;5431757;26;20267;-48
2024/04/13 04:39:07;;;;;;;4.45;1.58;;;;;;;;;;5456603;26;20279;-40
2024/04/13 04:41:33;;;;;;;4.78;1.50;;;;;;;;;;5445254;26;20227;-40
2024/04/13 04:43:59;;;;;;;2.28;1.48;;;;;;;;;;5438496;26;20279;-45
2024/04/13 04:46:26;;;;;;;5.63;1.90;;;;;;;;;;5439223;26;20558;-44
2024/04/13 04:48:51;;;;;;;7.22;1.58;;;;;;;;;;5434389;26;20296;-45
2024/04/13 04:51:18;;;;;;;4.05;1.80;;;;;;;;;;5442572;26;20228;-45
2024/04/13 04:53:44;;;;;;;3.30;1.70;;;;;;;;;;5452249;26;20239;-44
2024/04/13 04:56:10;;;;;;;3.65;1.75;;;;;;;;;;5450819;26;20942;-44
2024/04/13 04:58:36;;;;;;;4.35;1.90;;;;;;;;;;5429061;26;20254;-45
2024/04/13 05:01:06;;;;;;;2.53;1.50;;;;;;;;;;5436271;26;20232;-44
2024/04/13 05:03:32;;;;;;;4.85;1.83;;;;;;;;;;5446219;26;20256;-45
2024/04/13 05:05:58;;;;;;;4.38;1.75;;;;;;;;;;5441263;26;20227;-45
2024/04/13 05:08:24;;;;;;;2.28;1.65;;;;;;;;;;5439930;26;20286;-45
2024/04/13 05:10:50;;;;;;;4.78;1.60;;;;;;;;;;5432847;26;20680;-45
2024/04/13 05:13:16;;;;;;;2.70;1.45;;;;;;;;;;5430487;26;20240;-45
2024/04/13 05:15:42;;;;;;;4.20;1.40;;;;;;;;;;5449793;26;20232;-45
2024/04/13 05:18:08;;;;;;;3.40;1.90;;;;;;;;;;5446432;26;20484;-45
2024/04/13 05:20:36;;;;;;;3.08;1.60;;;;;;;;;;5434031;26;20235;-45
2024/04/13 05:23:03;;;;;;;2.28;1.70;;;;;;;;;;5428097;26;20286;-45
2024/04/13 05:25:28;;;;;;;3.13;1.77;;;;;;;;;;5432240;26;20263;-45
2024/04/13 05:27:54;;;;;;;1.63;1.52;;;;;;;;;;5431835;26;20227;-45
2024/04/13 05:30:20;;;;;;;3.78;1.88;;;;;;;;;;5418883;26;20788;-45
2024/04/13 05:32:46;;;;;;;2.90;1.80;;;;;;;;;;5430340;26;20482;-44
2024/04/13 05:35:12;;;;;;;5.25;1.90;;;;;;;;;;5447641;26;20240;-44
2024/04/13 05:37:38;;;;;;;1.73;1.63;;;;;;;;;;5438263;26;20240;-45
2024/04/13 05:40:04;;;;;;;4.15;1.50;;;;;;;;;;5442997;26;20236;-44
2024/04/13 05:42:31;;;;;;;2.42;1.67;;;;;;;;;;5454455;26;20511;-46
2024/04/13 05:44:58;;;;;;;4.13;1.40;;;;;;;;;;5435298;26;20595;-45
2024/04/13 05:47:23;;;;;;;3.60;2.33;;;;;;;;;;5446562;26;20266;-45
2024/04/13 05:49:51;;;;;;;4.32;3.15;;;;;;;;;;5445173;26;20236;-45
2024/04/13 05:52:17;;;;;;;4.25;2.20;;;;;;;;;;5435843;26;20317;-45
2024/04/13 05:54:42;;;;;;;4.20;2.40;;;;;;;;;;5426434;26;20315;-45
2024/04/13 05:57:09;;;;;;;2.65;1.70;;;;;;;;;;5435249;26;20271;-46
2024/04/13 05:59:35;;;;;;;3.40;1.90;;;;;;;;;;5433544;26;20282;-46
2024/04/13 06:02:01;;;;;;;4.65;2.80;;;;;;;;;;5436123;26;20745;-46
2024/04/13 06:04:28;;;;;;;4.35;1.70;;;;;;;;;;5427239;26;20293;-45
2024/04/13 06:06:54;;;;;;;4.55;1.90;;;;;;;;;;5428712;26;20288;-45
2024/04/13 06:09:20;;;;;;;3.17;2.15;;;;;;;;;;5420744;26;20314;-46
2024/04/13 06:11:46;;;;;;;2.63;1.70;;;;;;;;;;5429883;26;20256;-45
2024/04/13 06:14:11;;;;;;;3.28;1.65;;;;;;;;;;5434047;26;20341;-45
2024/04/13 06:16:37;;;;;;;3.08;1.48;;;;;;;;;;5453830;26;20695;-47
2024/04/13 06:19:03;;;;;;;3.45;1.73;;;;;;;;;;5440587;26;20622;-45
2024/04/13 06:21:29;;;;;;;2.50;1.63;;;;;;;;;;5450481;26;20337;-45
2024/04/13 06:23:55;;;;;;;5.32;1.77;;;;;;;;;;5440414;26;20626;-46
2024/04/13 06:26:21;;;;;;;3.55;1.90;;;;;;;;;;5453305;26;20278;-45
2024/04/13 06:28:47;;;;;;;1.92;1.65;;;;;;;;;;5437712;26;20273;-45
2024/04/13 06:31:13;;;;;;;1.60;1.50;;;;;;;;;;5445026;26;20375;-46
2024/04/13 06:33:39;;;;;;;2.20;1.58;;;;;;;;;;5452400;26;20641;-45
2024/04/13 06:36:05;;;;;;;3.70;1.77;;;;;;;;;;5453796;26;20231;-45
2024/04/13 06:38:31;;;;;;;2.00;1.58;;;;;;;;;;5452284;26;20228;-46
2024/04/13 06:40:57;;;;;;;2.42;1.63;;;;;;;;;;5433262;26;20227;-45
2024/04/13 06:43:23;;;;;;;2.53;1.58;;;;;;;;;;5434699;26;20274;-45
2024/04/13 06:45:50;;;;;;;3.13;1.73;;;;;;;;;;5445726;26;20710;-45
2024/04/13 06:48:16;;;;;;;1.95;1.70;;;;;;;;;;5434846;26;20229;-45
2024/04/13 06:50:44;;;;;;;1.80;1.70;;;;;;;;;;5438922;26;20286;-46
2024/04/13 06:53:09;;;;;;;5.00;2.17;;;;;;;;;;5431439;26;20219;-45
2024/04/13 06:55:35;;;;;;;3.05;1.52;;;;;;;;;;5438514;26;20273;-45
2024/04/13 06:58:01;;;;;;;1.38;1.27;;;;;;;;;;5443387;26;21719;-45
2024/04/13 07:00:27;;;;;;;2.22;1.50;;;;;;;;;;5437737;26;20233;-46
2024/04/13 07:02:53;;;;;;;1.98;1.17;;;;;;;;;;5450735;26;20235;-45
2024/04/13 07:05:19;;;;;;;1.50;1.40;;;;;;;;;;5445463;26;20231;-45
2024/04/13 07:07:45;;;;;;;3.80;1.50;;;;;;;;;;5456150;26;20227;-46
2024/04/13 07:10:11;;;;;;;1.90;1.50;;;;;;;;;;5437999;26;20240;-45
2024/04/13 07:12:37;;;;;;;1.52;1.20;;;;;;;;;;5451563;26;20263;-45
2024/04/13 07:15:03;;;;;;;2.47;1.33;;;;;;;;;;5441336;26;20240;-45
2024/04/13 07:17:29;;;;;;;2.78;1.88;;;;;;;;;;5445411;26;20231;-45
2024/04/13 07:19:55;;;;;;;4.20;2.58;;;;;;;;;;5436329;26;20341;-45
2024/04/13 07:22:21;;;;;;;1.88;1.40;;;;;;;;;;5448646;26;20290;-45
2024/04/13 07:24:47;;;;;;;1.98;1.52;;;;;;;;;;5442773;26;20236;-45
2024/04/13 07:27:13;;;;;;;2.40;1.40;;;;;;;;;;5437382;26;20271;-45
2024/04/13 07:29:39;;;;;;;1.52;1.27;;;;;;;;;;5438358;26;20603;-45
2024/04/13 07:32:05;;;;;;;2.35;1.48;;;;;;;;;;5436641;26;20529;-46
2024/04/13 07:34:31;;;;;;;1.88;1.63;;;;;;;;;;5428885;26;20236;-45
2024/04/13 07:36:57;;;;;;;1.25;1.15;;;;;;;;;;5440621;26;20240;-45
2024/04/13 07:39:23;;;;;;;3.53;1.50;;;;;;;;;;5429828;26;20980;-45
2024/04/13 07:41:49;;;;;;;3.50;1.67;;;;;;;;;;5441677;26;20232;-46
2024/04/13 07:44:15;;;;;;;3.17;1.58;;;;;;;;;;5448401;26;20236;-46
2024/04/13 07:46:40;;;;;;;4.32;1.60;;;;;;;;;;5440927;26;20274;-45
2024/04/13 07:49:06;;;;;;;3.35;1.70;;;;;;;;;;5446921;26;20281;-45
2024/04/13 07:51:32;;;;;;;1.65;1.50;;;;;;;;;;5432268;26;20232;-45
2024/04/13 07:53:58;;;;;;;3.45;1.58;;;;;;;;;;5436441;26;20228;-45
2024/04/13 07:56:24;;;;;;;2.70;1.52;;;;;;;;;;5444429;26;20351;-46
2024/04/13 07:58:50;;;;;;;2.03;1.55;;;;;;;;;;5439832;26;20308;-45
2024/04/13 08:01:16;;;;;;;3.50;2.00;;;;;;;;;;5435769;26;20232;-46
2024/04/13 08:03:42;;;;;;;4.30;2.53;;;;;;;;;;5437195;26;20244;-46
2024/04/13 08:06:08;;;;;;;5.22;3.75;;;;;;;;;;5439671;26;20802;-46
2024/04/13 08:08:34;;;;;;;6.85;3.38;;;;;;;;;;5451044;26;20227;-46
2024/04/13 08:11:00;;;;;;;6.40;2.97;;;;;;;;;;5445309;26;20308;-45
2024/04/13 08:13:26;;;;;;;3.80;2.97;;;;;;;;;;5438500;26;20263;-45
2024/04/13 08:15:51;;;;;;;4.55;2.70;;;;;;;;;;5451450;26;20455;-45
2024/04/13 08:18:17;;;;;;;4.70;2.83;;;;;;;;;;5441425;26;20227;-46
2024/04/13 08:20:45;;;;;;;4.57;2.90;;;;;;;;;;5439158;26;20332;-46
2024/04/13 08:23:11;;;;;;;6.78;3.10;;;;;;;;;;5447883;26;20481;-45
2024/04/13 08:25:37;;;;;;;2.97;2.25;;;;;;;;;;5439878;26;20247;-45
2024/04/13 08:28:03;;;;;;;8.07;2.80;;;;;;;;;;5450958;26;20220;-45
2024/04/13 08:30:29;;;;;;;4.30;2.55;;;;;;;;;;5435999;26;20298;-46
2024/04/13 08:32:55;;;;;;;4.07;2.60;;;;;;;;;;5423652;26;20244;-46
2024/04/13 08:35:21;;;;;;;4.60;2.85;;;;;;;;;;5434098;26;20278;-45
2024/04/13 08:37:47;;;;;;;4.97;2.85;;;;;;;;;;5437620;26;20331;-46
2024/04/13 08:40:13;;;;;;;6.43;2.55;;;;;;;;;;5433018;26;20434;-45
2024/04/13 08:42:43;;;;;;;6.72;2.38;;;;;;;;;;5445025;26;20270;-45
2024/04/13 08:45:10;;;;;;;3.70;2.10;;;;;;;;;;5441670;26;20235;-45
2024/04/13 08:47:38;;;;;;;3.13;2.10;;;;;;;;;;5450864;26;20482;-45
2024/04/13 08:50:04;;;;;;;2.60;1.77;;;;;;;;;;5444961;26;20287;-45
2024/04/13 08:52:30;;;;;;;5.68;2.10;;;;;;;;;;5448771;26;20223;-46
2024/04/13 08:54:57;;;;;;;3.85;2.40;;;;;;;;;;5443270;26;20239;-46
2024/04/13 08:57:25;;;;;;;5.28;2.40;;;;;;;;;;5440679;26;20240;-45
2024/04/13 08:59:52;;;;;;;3.15;2.03;;;;;;;;;;5442762;26;20303;-45
2024/04/13 09:02:20;;;;;;;3.33;2.10;;;;;;;;;;5448118;26;20579;-45
2024/04/13 09:04:45;;;;;;;2.70;2.05;;;;;;;;;;5447956;26;20293;-46
2024/04/13 09:07:12;;;;;;;4.68;2.08;;;;;;;;;;5442968;26;20228;-45
2024/04/13 09:09:39;;;;;;;5.10;2.40;;;;;;;;;;5453585;26;20283;-46
2024/04/13 09:12:11;;;;;;;2.10;1.80;;;;;;;;;;5442463;26;20243;-45
2024/04/13 09:14:37;;;;;;;2.50;1.80;;;;;;;;;;5454916;26;20231;-46
2024/04/13 09:17:04;;;;;;;3.13;1.73;;;;;;;;;;5455597;26;20316;-47
2024/04/13 09:19:30;;;;;;;3.25;1.65;;;;;;;;;;5435377;26;20438;-45
2024/04/13 09:21:56;;;;;;;4.47;1.73;;;;;;;;;;5455234;26;20376;-45
2024/04/13 09:24:22;;;;;;;3.22;1.52;;;;;;;;;;5455912;26;20595;-46
2024/04/13 09:26:48;;;;;;;4.70;1.77;;;;;;;;;;5441309;26;20259;-46
2024/04/13 09:29:25;;;;;;;1.90;1.70;;;;;;;;;;5453209;26;20223;-45
2024/04/13 09:31:51;;;;;;;3.42;2.03;;;;;;;;;;5436281;26;20626;-46
2024/04/13 09:34:17;;;;;;;3.05;1.80;;;;;;;;;;5439020;26;20332;-46
2024/04/13 09:36:43;;;;;;;3.65;2.03;;;;;;;;;;5449258;26;20227;-46
2024/04/13 09:39:19;;;;;;;5.50;1.77;;;;;;;;;;5442655;26;20618;-46
2024/04/13 09:41:44;;;;;;;3.97;1.90;;;;;;;;;;5447721;26;20258;-46
2024/04/13 09:44:10;;;;;;;4.47;1.58;;;;;;;;;;5453008;26;20227;-47
2024/04/13 09:46:36;;;;;;;4.45;1.65;;;;;;;;;;5450248;26;20227;-45
2024/04/13 09:49:04;;;;;;;3.13;1.52;;;;;;;;;;5433818;26;20277;-45
2024/04/13 09:51:29;;;;;;;3.30;1.70;;;;;;;;;;5443511;26;20224;-46
2024/04/13 09:53:55;;;;;;;4.45;1.80;;;;;;;;;;5440805;26;20482;-45
2024/04/13 09:56:22;;;;;;;5.32;1.65;;;;;;;;;;5448425;26;20626;-46
2024/04/13 09:58:50;;;;;;;2.72;1.35;;;;;;;;;;5440487;26;20270;-45
2024/04/13 10:01:16;;;;;;;2.50;1.50;;;;;;;;;;5453817;26;20591;-46
2024/04/13 10:03:42;;;;;;;3.85;1.55;;;;;;;;;;5443465;26;20225;-46
2024/04/13 10:06:11;;;;;;;3.05;1.50;;;;;;;;;;5452484;26;20227;-45
2024/04/13 10:08:39;;;;;;;3.97;1.60;;;;;;;;;;5449789;26;20263;-45
2024/04/13 10:11:06;;;;;;;3.03;1.20;;;;;;;;;;5446992;26;20516;-45
2024/04/13 10:13:41;;;;;;;1.90;1.38;;;;;;;;;;5439164;26;20266;-45
2024/04/13 10:16:07;;;;;;;2.85;1.30;;;;;;;;;;5447080;26;20239;-46
2024/04/13 10:18:33;;;;;;;2.30;1.30;;;;;;;;;;5438339;26;20223;-45
2024/04/13 10:21:02;;;;;;;2.03;1.30;;;;;;;;;;5444487;26;20229;-46
2024/04/13 10:23:37;;;;;;;2.10;1.25;;;;;;;;;;5425091;26;20228;-45
2024/04/13 10:26:04;;;;;;;2.45;1.52;;;;;;;;;;5424812;26;20621;-45
2024/04/13 10:28:30;;;;;;;2.42;1.35;;;;;;;;;;5428001;26;20239;-48
2024/04/13 10:30:57;;;;;;;2.92;1.40;;;;;;;;;;5434062;26;20537;-45
2024/04/13 10:33:23;;;;;;;12.32;1.42;;;;;;;;;;5432908;26;20244;-45
2024/04/13 10:35:57;;;;;;;9.13;1.50;;;;;;;;;;5427595;26;20238;-46
2024/04/13 10:38:24;;;;;;;2.17;1.50;;;;;;;;;;5435572;26;20274;-45
2024/04/13 10:40:50;;;;;;;5.18;1.30;;;;;;;;;;5432904;26;20625;-46
2024/04/13 10:43:19;;;;;;;4.30;1.70;;;;;;;;;;5428195;26;20314;-45
2024/04/13 10:46:00;;;;;;;3.53;1.58;;;;;;;;;;5439154;26;20433;-45
2024/04/13 10:48:28;;;;;;;4.72;1.35;;;;;;;;;;5438815;26;20274;-45
2024/04/13 10:50:55;;;;;;;3.10;1.40;;;;;;;;;;5433829;26;20231;-46
2024/04/13 10:53:23;;;;;;;4.85;1.38;;;;;;;;;;5438208;26;20813;-46
2024/04/13 10:55:49;;;;;;;3.10;1.45;;;;;;;;;;5433657;26;20446;-46
2024/04/13 10:58:15;;;;;;;2.20;1.27;;;;;;;;;;5428808;26;20246;-45
2024/04/13 11:00:49;;;;;;;2.53;1.40;;;;;;;;;;5433005;26;20643;-45
2024/04/13 11:03:16;;;;;;;3.45;1.20;;;;;;;;;;5428987;26;20283;-45
2024/04/13 11:05:42;;;;;;;2.13;1.20;;;;;;;;;;5456536;26;20235;-45
2024/04/13 11:08:08;;;;;;;4.53;1.30;;;;;;;;;;5440659;26;20247;-46
2024/04/13 11:10:35;;;;;;;1.60;1.25;;;;;;;;;;5445639;26;20603;-45
2024/04/13 11:13:02;;;;;;;3.15;1.25;;;;;;;;;;5430461;26;20275;-46
2024/04/13 11:15:28;;;;;;;1.20;1.10;;;;;;;;;;5442088;26;20236;-45
2024/04/13 11:17:54;;;;;;;2.13;1.30;;;;;;;;;;5443563;26;20484;-46
2024/04/13 11:20:20;;;;;;;9.65;1.52;;;;;;;;;;5439264;26;20269;-45
2024/04/13 11:22:46;;;;;;;5.18;1.85;;;;;;;;;;5432614;26;20290;-45
2024/04/13 11:25:15;;;;;;;5.53;1.38;;;;;;;;;;5434941;26;20316;-45
2024/04/13 11:27:41;;;;;;;1.45;1.25;;;;;;;;;;5436244;26;20235;-45
2024/04/13 11:30:07;;;;;;;4.80;1.40;;;;;;;;;;5436245;26;20244;-45
2024/04/13 11:32:33;;;;;;;2.08;1.40;;;;;;;;;;5423878;26;20328;-46
2024/04/13 11:34:59;;;;;;;3.00;1.10;;;;;;;;;;5430653;26;20231;-45
2024/04/13 11:37:24;;;;;;;2.60;1.40;;;;;;;;;;5443456;26;20296;-46
2024/04/13 11:39:51;;;;;;;2.53;1.08;;;;;;;;;;5437349;26;20282;-46
2024/04/13 11:42:21;;;;;;;2.90;1.30;;;;;;;;;;5431869;26;20244;-46
2024/04/13 11:44:49;;;;;;;3.70;1.30;;;;;;;;;;5434906;26;20279;-46
2024/04/13 11:47:15;;;;;;;1.23;1.10;;;;;;;;;;5443422;26;20228;-45
2024/04/13 11:49:42;;;;;;;1.63;1.20;;;;;;;;;;5444258;26;20509;-45
2024/04/13 11:52:11;;;;;;;2.47;1.20;;;;;;;;;;5448780;26;20236;-46
2024/04/13 11:54:37;;;;;;;2.22;1.10;;;;;;;;;;5454485;26;20304;-45
2024/04/13 11:57:10;;;;;;;1.67;1.30;;;;;;;;;;5442213;26;20607;-45
2024/04/13 11:59:35;;;;;;;1.38;1.15;;;;;;;;;;5433566;26;20290;-45
2024/04/13 12:02:01;;;;;;;1.48;1.20;;;;;;;;;;5432304;26;20233;-45
2024/04/13 12:04:27;;;;;;;2.17;1.30;;;;;;;;;;5438778;26;20270;-46
2024/04/13 12:06:53;;;;;;;3.42;1.20;;;;;;;;;;5440236;26;20242;-46
2024/04/13 12:09:20;;;;;;;1.60;1.30;;;;;;;;;;5442706;26;20270;-46
2024/04/13 12:11:46;;;;;;;5.85;1.50;;;;;;;;;;5437445;26;20618;-45
2024/04/13 12:14:12;;;;;;;2.60;1.33;;;;;;;;;;5444356;26;20253;-45
2024/04/13 12:16:38;;;;;;;1.60;1.10;;;;;;;;;;5453312;26;20290;-47
2024/04/13 12:19:03;;;;;;;1.42;1.20;;;;;;;;;;5447542;26;20231;-46
2024/04/13 12:21:31;;;;;;;1.63;1.08;;;;;;;;;;5453722;26;20493;-45
2024/04/13 12:23:57;;;;;;;3.03;1.42;;;;;;;;;;5448758;26;20328;-46
2024/04/13 12:26:22;;;;;;;1.20;1.10;;;;;;;;;;5421492;26;20224;-46
2024/04/13 12:28:48;;;;;;;4.30;1.45;;;;;;;;;;5438372;26;20231;-45
2024/04/13 12:31:14;;;;;;;1.90;1.10;;;;;;;;;;5433390;26;20239;-46
2024/04/13 12:33:41;;;;;;;3.45;1.20;;;;;;;;;;5437195;26;20316;-46
2024/04/13 12:36:09;;;;;;;4.00;1.50;;;;;;;;;;5431834;26;20518;-46
2024/04/13 12:38:36;;;;;;;1.60;1.20;;;;;;;;;;5441949;26;20291;-45
2024/04/13 12:41:03;;;;;;;5.40;1.42;;;;;;;;;;5427284;26;20231;-45
2024/04/13 12:43:29;;;;;;;2.47;1.10;;;;;;;;;;5430290;26;20247;-46
2024/04/13 12:45:55;;;;;;;1.10;1.00;;;;;;;;;;5436167;26;20292;-46
2024/04/13 12:48:21;;;;;;;1.15;1.00;;;;;;;;;;5443565;26;20518;-45
2024/04/13 12:50:47;;;;;;;1.52;0.98;;;;;;;;;;5450647;26;20392;-46
2024/04/13 12:53:13;;;;;;;1.27;1.17;;;;;;;;;;5451130;26;20236;-46
2024/04/13 12:55:39;;;;;;;1.30;1.08;;;;;;;;;;5454504;26;20227;-46
2024/04/13 12:58:06;;;;;;;1.67;0.98;;;;;;;;;;5435895;26;20551;-45
2024/04/13 13:00:32;;;;;;;3.42;1.17;;;;;;;;;;5447362;26;20231;-46
2024/04/13 13:02:58;;;;;;;1.42;1.00;;;;;;;;;;5427772;26;20444;-46
2024/04/13 13:05:24;;;;;;;1.30;1.17;;;;;;;;;;5443700;26;20321;-46
2024/04/13 13:07:50;;;;;;;1.88;0.88;;;;;;;;;;5447445;26;20239;-46
2024/04/13 13:10:16;;;;;;;1.20;1.10;;;;;;;;;;5444273;26;20231;-45
2024/04/13 13:12:43;;;;;;;1.13;1.02;;;;;;;;;;5440051;26;20231;-46
2024/04/13 13:15:09;;;;;;;1.25;1.00;;;;;;;;;;5449811;26;20681;-45
2024/04/13 13:17:35;;;;;;;3.50;1.77;;;;;;;;;;5452824;26;20233;-46
2024/04/13 13:20:02;;;;;;;1.52;0.85;;;;;;;;;;5441415;26;20232;-46
2024/04/13 13:22:28;;;;;;;1.63;1.10;;;;;;;;;;5443184;26;20270;-46
2024/04/13 13:24:54;;;;;;;1.38;1.20;;;;;;;;;;5445872;26;20442;-46
2024/04/13 13:27:20;;;;;;;0.93;0.90;;;;;;;;;;5456498;26;20305;-45
2024/04/13 13:29:46;;;;;;;1.50;1.40;;;;;;;;;;5439336;26;20220;-45
2024/04/13 13:32:12;;;;;;;2.40;1.30;;;;;;;;;;5459392;26;20224;-46
2024/04/13 13:34:38;;;;;;;3.63;1.23;;;;;;;;;;5467315;26;20301;-45
2024/04/13 13:37:08;;;;;;;3.53;1.10;;;;;;;;;;5462739;26;20314;-45
2024/04/13 13:39:34;;;;;;;1.20;1.10;;;;;;;;;;5441800;26;20232;-45
2024/04/13 13:42:00;;;;;;;1.92;1.10;;;;;;;;;;5433137;26;20230;-45
2024/04/13 13:44:26;;;;;;;2.90;1.40;;;;;;;;;;5424841;26;20283;-46
2024/04/13 13:46:52;;;;;;;3.65;1.15;;;;;;;;;;5439347;26;20304;-45
2024/04/13 13:49:18;;;;;;;4.30;1.20;;;;;;;;;;5427105;26;20223;-45
2024/04/13 13:51:43;;;;;;;2.20;1.20;;;;;;;;;;5442098;26;20315;-46
2024/04/13 13:54:10;;;;;;;2.05;0.90;;;;;;;;;;5439259;26;20274;-46
2024/04/13 13:56:36;;;;;;;2.33;1.40;;;;;;;;;;5443878;26;20872;-46
2024/04/13 13:59:03;;;;;;;7.32;1.20;;;;;;;;;;5447821;26;20227;-46
2024/04/13 14:01:29;;;;;;;2.67;1.15;;;;;;;;;;5425333;26;20300;-45
2024/04/13 14:03:55;;;;;;;1.35;0.88;;;;;;;;;;5447580;26;20236;-46
2024/04/13 14:06:21;;;;;;;3.53;1.10;;;;;;;;;;5447776;26;20282;-45
2024/04/13 14:08:49;;;;;;;3.20;1.33;;;;;;;;;;5428151;26;20236;-45
2024/04/13 14:11:15;;;;;;;2.97;1.38;;;;;;;;;;5437510;26;20233;-46
2024/04/13 14:13:41;;;;;;;3.95;1.35;;;;;;;;;;5434340;26;20232;-45
2024/04/13 14:16:07;;;;;;;2.45;1.20;;;;;;;;;;5432246;26;20273;-45
2024/04/13 14:18:33;;;;;;;1.42;1.23;;;;;;;;;;5422410;26;20272;-46
2024/04/13 14:20:59;;;;;;;1.40;1.00;;;;;;;;;;5424300;26;20360;-46
2024/04/13 14:23:25;;;;;;;5.40;1.27;;;;;;;;;;5451692;26;20231;-45
2024/04/13 14:25:51;;;;;;;1.98;1.30;;;;;;;;;;5429260;26;20235;-45
2024/04/13 14:28:17;;;;;;;1.40;1.30;;;;;;;;;;5443916;26;20667;-46
2024/04/13 14:30:43;;;;;;;1.63;1.30;;;;;;;;;;5432780;26;20594;-46
2024/04/13 14:33:09;;;;;;;1.30;1.08;;;;;;;;;;5431368;26;20228;-47
2024/04/13 14:35:37;;;;;;;1.95;0.98;;;;;;;;;;5433364;26;20229;-46
2024/04/13 14:38:04;;;;;;;4.90;1.73;;;;;;;;;;5427349;26;20277;-46